sensor_id;sensor_type;location;lat;lon;timestamp;P1;durP1;ratioP1;P2;durP2;ratioP2
74894;SDS011;63447;49.446;8.666;2023-02-28T00:00:48;4.53;;;1.97;;
74894;SDS011;63447;49.446;8.666;2023-02-28T00:03:16;4.87;;;2.10;;
74894;SDS011;63447;49.446;8.666;2023-02-28T00:05:41;5.18;;;2.15;;
74894;SDS011;63447;49.446;8.666;2023-02-28T00:08:11;4.68;;;2.10;;
74894;SDS011;63447;49.446;8.666;2023-02-28T00:10:39;5.15;;;2.33;;
74894;SDS011;63447;49.446;8.666;2023-02-28T00:13:07;5.13;;;2.20;;
74894;SDS011;63447;49.446;8.666;2023-02-28T00:15:35;5.18;;;2.42;;
74894;SDS011;63447;49.446;8.666;2023-02-28T00:18:05;5.07;;;2.10;;
74894;SDS011;63447;49.446;8.666;2023-02-28T00:20:36;4.95;;;2.00;;
74894;SDS011;63447;49.446;8.666;2023-02-28T00:23:04;4.70;;;2.40;;
74894;SDS011;63447;49.446;8.666;2023-02-28T00:25:29;5.57;;;2.53;;
74894;SDS011;63447;49.446;8.666;2023-02-28T00:27:55;4.70;;;2.07;;
74894;SDS011;63447;49.446;8.666;2023-02-28T00:30:23;5.68;;;2.38;;
74894;SDS011;63447;49.446;8.666;2023-02-28T00:32:51;5.57;;;2.70;;
74894;SDS011;63447;49.446;8.666;2023-02-28T00:35:18;5.50;;;2.50;;
74894;SDS011;63447;49.446;8.666;2023-02-28T00:37:47;4.53;;;1.90;;
74894;SDS011;63447;49.446;8.666;2023-02-28T00:40:17;5.72;;;2.20;;
74894;SDS011;63447;49.446;8.666;2023-02-28T00:42:43;4.70;;;2.00;;
74894;SDS011;63447;49.446;8.666;2023-02-28T00:45:08;4.83;;;1.90;;
74894;SDS011;63447;49.446;8.666;2023-02-28T00:47:38;6.22;;;2.15;;
74894;SDS011;63447;49.446;8.666;2023-02-28T00:50:06;5.45;;;2.60;;
74894;SDS011;63447;49.446;8.666;2023-02-28T00:52:34;4.38;;;2.00;;
74894;SDS011;63447;49.446;8.666;2023-02-28T00:55:07;4.90;;;1.85;;
74894;SDS011;63447;49.446;8.666;2023-02-28T00:57:32;5.03;;;2.03;;
74894;SDS011;63447;49.446;8.666;2023-02-28T01:00:00;5.20;;;2.30;;
74894;SDS011;63447;49.446;8.666;2023-02-28T01:02:26;5.63;;;2.20;;
74894;SDS011;63447;49.446;8.666;2023-02-28T01:04:51;6.20;;;1.88;;
74894;SDS011;63447;49.446;8.666;2023-02-28T01:07:21;6.05;;;2.22;;
74894;SDS011;63447;49.446;8.666;2023-02-28T01:09:47;4.75;;;1.88;;
74894;SDS011;63447;49.446;8.666;2023-02-28T01:12:15;5.57;;;1.90;;
74894;SDS011;63447;49.446;8.666;2023-02-28T01:14:40;5.72;;;2.53;;
74894;SDS011;63447;49.446;8.666;2023-02-28T01:17:10;5.85;;;2.22;;
74894;SDS011;63447;49.446;8.666;2023-02-28T01:19:37;5.07;;;2.22;;
74894;SDS011;63447;49.446;8.666;2023-02-28T01:22:03;4.70;;;2.30;;
74894;SDS011;63447;49.446;8.666;2023-02-28T01:24:32;6.03;;;2.95;;
74894;SDS011;63447;49.446;8.666;2023-02-28T01:26:58;6.00;;;2.60;;
74894;SDS011;63447;49.446;8.666;2023-02-28T01:29:23;6.40;;;2.93;;
74894;SDS011;63447;49.446;8.666;2023-02-28T01:31:48;5.82;;;2.50;;
74894;SDS011;63447;49.446;8.666;2023-02-28T01:34:14;6.37;;;2.53;;
74894;SDS011;63447;49.446;8.666;2023-02-28T01:36:44;4.90;;;2.22;;
74894;SDS011;63447;49.446;8.666;2023-02-28T01:39:11;5.85;;;2.50;;
74894;SDS011;63447;49.446;8.666;2023-02-28T01:41:37;5.70;;;2.50;;
74894;SDS011;63447;49.446;8.666;2023-02-28T01:44:53;6.25;;;2.25;;
74894;SDS011;63447;49.446;8.666;2023-02-28T01:47:10;6.35;;;2.70;;
74894;SDS011;63447;49.446;8.666;2023-02-28T01:49:38;5.50;;;2.42;;
74894;SDS011;63447;49.446;8.666;2023-02-28T01:52:07;5.55;;;2.60;;
74894;SDS011;63447;49.446;8.666;2023-02-28T01:54:45;7.40;;;3.10;;
74894;SDS011;63447;49.446;8.666;2023-02-28T01:57:18;5.68;;;2.50;;
74894;SDS011;63447;49.446;8.666;2023-02-28T02:02:18;5.53;;;2.80;;
74894;SDS011;63447;49.446;8.666;2023-02-28T02:04:52;8.05;;;2.90;;
74894;SDS011;63447;49.446;8.666;2023-02-28T02:07:24;5.13;;;2.30;;
74894;SDS011;63447;49.446;8.666;2023-02-28T02:09:58;6.63;;;2.80;;
74894;SDS011;63447;49.446;8.666;2023-02-28T02:15:16;6.13;;;2.78;;
74894;SDS011;63447;49.446;8.666;2023-02-28T02:17:52;5.65;;;2.67;;
74894;SDS011;63447;49.446;8.666;2023-02-28T02:25:45;6.10;;;2.80;;
74894;SDS011;63447;49.446;8.666;2023-02-28T02:33:47;5.47;;;2.90;;
74894;SDS011;63447;49.446;8.666;2023-02-28T02:36:39;5.30;;;2.65;;
74894;SDS011;63447;49.446;8.666;2023-02-28T02:41:59;6.20;;;3.05;;
74894;SDS011;63447;49.446;8.666;2023-02-28T02:44:34;6.68;;;3.00;;
74894;SDS011;63447;49.446;8.666;2023-02-28T02:47:13;5.68;;;2.67;;
74894;SDS011;63447;49.446;8.666;2023-02-28T02:49:43;6.07;;;2.90;;
74894;SDS011;63447;49.446;8.666;2023-02-28T02:52:17;4.95;;;2.75;;
74894;SDS011;63447;49.446;8.666;2023-02-28T02:54:48;5.47;;;2.60;;
74894;SDS011;63447;49.446;8.666;2023-02-28T02:57:33;6.55;;;2.92;;
74894;SDS011;63447;49.446;8.666;2023-02-28T03:00:03;7.20;;;3.53;;
74894;SDS011;63447;49.446;8.666;2023-02-28T03:02:33;6.05;;;3.30;;
74894;SDS011;63447;49.446;8.666;2023-02-28T03:05:08;5.90;;;2.72;;
74894;SDS011;63447;49.446;8.666;2023-02-28T03:07:59;6.20;;;2.83;;
74894;SDS011;63447;49.446;8.666;2023-02-28T03:10:37;7.47;;;3.28;;
74894;SDS011;63447;49.446;8.666;2023-02-28T03:15:55;6.50;;;3.42;;
74894;SDS011;63447;49.446;8.666;2023-02-28T03:26:32;6.97;;;3.38;;
74894;SDS011;63447;49.446;8.666;2023-02-28T03:31:55;6.22;;;3.17;;
74894;SDS011;63447;49.446;8.666;2023-02-28T03:34:33;6.38;;;3.08;;
74894;SDS011;63447;49.446;8.666;2023-02-28T03:37:08;6.68;;;3.22;;
74894;SDS011;63447;49.446;8.666;2023-02-28T03:39:46;6.25;;;2.97;;
74894;SDS011;63447;49.446;8.666;2023-02-28T03:42:19;7.00;;;3.10;;
74894;SDS011;63447;49.446;8.666;2023-02-28T03:44:51;8.02;;;3.85;;
74894;SDS011;63447;49.446;8.666;2023-02-28T03:52:17;7.18;;;3.88;;
74894;SDS011;63447;49.446;8.666;2023-02-28T03:54:45;6.90;;;3.70;;
74894;SDS011;63447;49.446;8.666;2023-02-28T03:57:18;7.47;;;3.40;;
74894;SDS011;63447;49.446;8.666;2023-02-28T04:00:06;6.32;;;3.25;;
74894;SDS011;63447;49.446;8.666;2023-02-28T04:02:34;7.00;;;3.47;;
74894;SDS011;63447;49.446;8.666;2023-02-28T04:05:05;7.97;;;3.20;;
74894;SDS011;63447;49.446;8.666;2023-02-28T04:07:33;9.27;;;3.53;;
74894;SDS011;63447;49.446;8.666;2023-02-28T04:10:01;7.18;;;3.65;;
74894;SDS011;63447;49.446;8.666;2023-02-28T04:12:30;6.68;;;3.13;;
74894;SDS011;63447;49.446;8.666;2023-02-28T04:14:59;7.68;;;3.90;;
74894;SDS011;63447;49.446;8.666;2023-02-28T04:17:25;7.75;;;3.58;;
74894;SDS011;63447;49.446;8.666;2023-02-28T04:19:52;6.47;;;3.45;;
74894;SDS011;63447;49.446;8.666;2023-02-28T04:22:18;7.35;;;3.53;;
74894;SDS011;63447;49.446;8.666;2023-02-28T04:24:44;7.47;;;3.80;;
74894;SDS011;63447;49.446;8.666;2023-02-28T04:27:09;6.63;;;3.35;;
74894;SDS011;63447;49.446;8.666;2023-02-28T04:29:35;8.25;;;3.80;;
74894;SDS011;63447;49.446;8.666;2023-02-28T04:32:05;7.40;;;3.67;;
74894;SDS011;63447;49.446;8.666;2023-02-28T04:34:31;8.27;;;3.78;;
74894;SDS011;63447;49.446;8.666;2023-02-28T04:36:59;7.35;;;3.42;;
74894;SDS011;63447;49.446;8.666;2023-02-28T04:39:28;7.07;;;3.67;;
74894;SDS011;63447;49.446;8.666;2023-02-28T04:41:53;7.63;;;4.10;;
74894;SDS011;63447;49.446;8.666;2023-02-28T04:44:21;7.60;;;4.05;;
74894;SDS011;63447;49.446;8.666;2023-02-28T04:46:48;8.25;;;3.97;;
74894;SDS011;63447;49.446;8.666;2023-02-28T04:49:14;6.90;;;3.83;;
74894;SDS011;63447;49.446;8.666;2023-02-28T04:54:08;7.38;;;3.75;;
74894;SDS011;63447;49.446;8.666;2023-02-28T04:56:34;9.13;;;4.15;;
74894;SDS011;63447;49.446;8.666;2023-02-28T04:59:02;7.30;;;3.65;;
74894;SDS011;63447;49.446;8.666;2023-02-28T05:01:30;6.43;;;3.08;;
74894;SDS011;63447;49.446;8.666;2023-02-28T05:04:02;8.43;;;3.80;;
74894;SDS011;63447;49.446;8.666;2023-02-28T05:06:30;7.88;;;3.75;;
74894;SDS011;63447;49.446;8.666;2023-02-28T05:08:58;6.97;;;3.75;;
74894;SDS011;63447;49.446;8.666;2023-02-28T05:11:25;9.43;;;3.57;;
74894;SDS011;63447;49.446;8.666;2023-02-28T05:13:54;7.90;;;3.30;;
74894;SDS011;63447;49.446;8.666;2023-02-28T05:16:19;7.67;;;3.63;;
74894;SDS011;63447;49.446;8.666;2023-02-28T05:18:44;7.93;;;3.78;;
74894;SDS011;63447;49.446;8.666;2023-02-28T05:24:20;7.80;;;3.97;;
74894;SDS011;63447;49.446;8.666;2023-02-28T05:26:48;7.65;;;4.10;;
74894;SDS011;63447;49.446;8.666;2023-02-28T05:29:16;7.57;;;4.18;;
74894;SDS011;63447;49.446;8.666;2023-02-28T05:31:44;8.35;;;4.30;;
74894;SDS011;63447;49.446;8.666;2023-02-28T05:34:12;8.13;;;3.90;;
74894;SDS011;63447;49.446;8.666;2023-02-28T05:36:38;9.20;;;4.20;;
74894;SDS011;63447;49.446;8.666;2023-02-28T05:39:04;5.82;;;3.38;;
74894;SDS011;63447;49.446;8.666;2023-02-28T05:41:37;7.28;;;3.78;;
74894;SDS011;63447;49.446;8.666;2023-02-28T05:44:05;7.45;;;3.67;;
74894;SDS011;63447;49.446;8.666;2023-02-28T05:46:31;6.80;;;3.57;;
74894;SDS011;63447;49.446;8.666;2023-02-28T05:48:58;8.40;;;3.97;;
74894;SDS011;63447;49.446;8.666;2023-02-28T05:51:25;10.05;;;3.70;;
74894;SDS011;63447;49.446;8.666;2023-02-28T05:53:50;7.68;;;4.10;;
74894;SDS011;63447;49.446;8.666;2023-02-28T05:56:15;7.82;;;3.53;;
74894;SDS011;63447;49.446;8.666;2023-02-28T05:58:41;8.77;;;3.53;;
74894;SDS011;63447;49.446;8.666;2023-02-28T06:01:30;8.52;;;4.13;;
74894;SDS011;63447;49.446;8.666;2023-02-28T06:04:12;7.82;;;4.00;;
74894;SDS011;63447;49.446;8.666;2023-02-28T06:06:43;7.50;;;3.53;;
74894;SDS011;63447;49.446;8.666;2023-02-28T06:09:10;8.18;;;3.90;;
74894;SDS011;63447;49.446;8.666;2023-02-28T06:11:35;7.35;;;3.78;;
74894;SDS011;63447;49.446;8.666;2023-02-28T06:14:01;11.30;;;4.63;;
74894;SDS011;63447;49.446;8.666;2023-02-28T06:16:27;6.50;;;3.33;;
74894;SDS011;63447;49.446;8.666;2023-02-28T06:18:56;8.52;;;4.05;;
74894;SDS011;63447;49.446;8.666;2023-02-28T06:21:23;12.00;;;5.53;;
74894;SDS011;63447;49.446;8.666;2023-02-28T06:26:17;7.18;;;3.83;;
74894;SDS011;63447;49.446;8.666;2023-02-28T06:28:42;8.80;;;4.40;;
74894;SDS011;63447;49.446;8.666;2023-02-28T06:31:10;8.63;;;3.93;;
74894;SDS011;63447;49.446;8.666;2023-02-28T06:33:39;8.20;;;4.65;;
74894;SDS011;63447;49.446;8.666;2023-02-28T06:36:09;8.55;;;4.35;;
74894;SDS011;63447;49.446;8.666;2023-02-28T06:38:36;10.43;;;4.22;;
74894;SDS011;63447;49.446;8.666;2023-02-28T06:41:05;8.60;;;4.53;;
74894;SDS011;63447;49.446;8.666;2023-02-28T06:43:36;8.80;;;4.50;;
74894;SDS011;63447;49.446;8.666;2023-02-28T06:46:07;10.90;;;4.68;;
74894;SDS011;63447;49.446;8.666;2023-02-28T06:48:35;9.15;;;5.00;;
74894;SDS011;63447;49.446;8.666;2023-02-28T06:51:04;10.32;;;5.82;;
74894;SDS011;63447;49.446;8.666;2023-02-28T06:53:31;10.48;;;5.70;;
74894;SDS011;63447;49.446;8.666;2023-02-28T06:55:57;17.55;;;10.88;;
74894;SDS011;63447;49.446;8.666;2023-02-28T06:58:23;9.20;;;5.30;;
74894;SDS011;63447;49.446;8.666;2023-02-28T07:00:50;9.60;;;5.57;;
74894;SDS011;63447;49.446;8.666;2023-02-28T07:03:19;9.27;;;5.43;;
74894;SDS011;63447;49.446;8.666;2023-02-28T07:05:47;10.18;;;5.20;;
74894;SDS011;63447;49.446;8.666;2023-02-28T07:08:12;13.02;;;8.25;;
74894;SDS011;63447;49.446;8.666;2023-02-28T07:10:38;9.48;;;4.70;;
74894;SDS011;63447;49.446;8.666;2023-02-28T07:13:04;7.78;;;4.32;;
74894;SDS011;63447;49.446;8.666;2023-02-28T07:15:30;9.73;;;5.38;;
74894;SDS011;63447;49.446;8.666;2023-02-28T07:17:55;16.85;;;8.68;;
74894;SDS011;63447;49.446;8.666;2023-02-28T07:20:23;6.90;;;3.67;;
74894;SDS011;63447;49.446;8.666;2023-02-28T07:22:49;8.52;;;4.07;;
74894;SDS011;63447;49.446;8.666;2023-02-28T07:25:23;11.02;;;4.30;;
74894;SDS011;63447;49.446;8.666;2023-02-28T07:27:54;8.23;;;4.47;;
74894;SDS011;63447;49.446;8.666;2023-02-28T07:30:29;8.20;;;4.03;;
74894;SDS011;63447;49.446;8.666;2023-02-28T07:32:57;8.63;;;4.68;;
74894;SDS011;63447;49.446;8.666;2023-02-28T07:35:27;8.15;;;4.38;;
74894;SDS011;63447;49.446;8.666;2023-02-28T07:37:57;7.97;;;4.38;;
74894;SDS011;63447;49.446;8.666;2023-02-28T07:40:25;9.05;;;4.15;;
74894;SDS011;63447;49.446;8.666;2023-02-28T07:42:54;8.27;;;4.10;;
74894;SDS011;63447;49.446;8.666;2023-02-28T07:45:21;11.70;;;4.97;;
74894;SDS011;63447;49.446;8.666;2023-02-28T07:47:49;8.55;;;4.32;;
74894;SDS011;63447;49.446;8.666;2023-02-28T07:50:15;9.60;;;4.40;;
74894;SDS011;63447;49.446;8.666;2023-02-28T07:52:43;7.53;;;4.30;;
74894;SDS011;63447;49.446;8.666;2023-02-28T07:55:11;8.07;;;4.60;;
74894;SDS011;63447;49.446;8.666;2023-02-28T07:57:36;9.45;;;5.25;;
74894;SDS011;63447;49.446;8.666;2023-02-28T08:00:05;7.67;;;4.17;;
74894;SDS011;63447;49.446;8.666;2023-02-28T08:02:32;9.68;;;4.35;;
74894;SDS011;63447;49.446;8.666;2023-02-28T08:04:59;9.50;;;4.43;;
74894;SDS011;63447;49.446;8.666;2023-02-28T08:07:25;7.88;;;4.07;;
74894;SDS011;63447;49.446;8.666;2023-02-28T08:09:53;8.18;;;4.63;;
74894;SDS011;63447;49.446;8.666;2023-02-28T08:12:18;7.60;;;3.92;;
74894;SDS011;63447;49.446;8.666;2023-02-28T08:14:44;7.47;;;4.07;;
74894;SDS011;63447;49.446;8.666;2023-02-28T08:17:14;7.70;;;3.97;;
74894;SDS011;63447;49.446;8.666;2023-02-28T08:19:40;8.38;;;4.18;;
74894;SDS011;63447;49.446;8.666;2023-02-28T08:22:11;8.38;;;4.80;;
74894;SDS011;63447;49.446;8.666;2023-02-28T08:24:40;7.93;;;4.22;;
74894;SDS011;63447;49.446;8.666;2023-02-28T08:27:08;8.90;;;4.40;;
74894;SDS011;63447;49.446;8.666;2023-02-28T08:29:37;8.88;;;4.90;;
74894;SDS011;63447;49.446;8.666;2023-02-28T08:32:05;8.73;;;4.65;;
74894;SDS011;63447;49.446;8.666;2023-02-28T08:34:33;8.38;;;4.32;;
74894;SDS011;63447;49.446;8.666;2023-02-28T08:36:59;8.53;;;4.10;;
74894;SDS011;63447;49.446;8.666;2023-02-28T08:39:24;8.33;;;4.63;;
74894;SDS011;63447;49.446;8.666;2023-02-28T08:41:50;8.05;;;4.35;;
74894;SDS011;63447;49.446;8.666;2023-02-28T08:44:17;8.27;;;4.55;;
74894;SDS011;63447;49.446;8.666;2023-02-28T08:46:43;9.37;;;4.67;;
74894;SDS011;63447;49.446;8.666;2023-02-28T08:49:09;8.47;;;4.60;;
74894;SDS011;63447;49.446;8.666;2023-02-28T08:51:35;8.63;;;4.53;;
74894;SDS011;63447;49.446;8.666;2023-02-28T08:54:03;9.37;;;4.53;;
74894;SDS011;63447;49.446;8.666;2023-02-28T08:56:31;9.77;;;4.78;;
74894;SDS011;63447;49.446;8.666;2023-02-28T08:58:56;10.87;;;4.97;;
74894;SDS011;63447;49.446;8.666;2023-02-28T09:01:25;9.70;;;4.63;;
74894;SDS011;63447;49.446;8.666;2023-02-28T09:03:55;7.85;;;4.28;;
74894;SDS011;63447;49.446;8.666;2023-02-28T09:06:24;9.55;;;4.72;;
74894;SDS011;63447;49.446;8.666;2023-02-28T09:08:51;8.90;;;4.30;;
74894;SDS011;63447;49.446;8.666;2023-02-28T09:11:23;9.73;;;4.60;;
74894;SDS011;63447;49.446;8.666;2023-02-28T09:13:51;8.88;;;4.32;;
74894;SDS011;63447;49.446;8.666;2023-02-28T09:16:16;9.67;;;5.00;;
74894;SDS011;63447;49.446;8.666;2023-02-28T09:18:44;9.00;;;4.93;;
74894;SDS011;63447;49.446;8.666;2023-02-28T09:21:11;9.00;;;4.18;;
74894;SDS011;63447;49.446;8.666;2023-02-28T09:23:42;8.30;;;4.50;;
74894;SDS011;63447;49.446;8.666;2023-02-28T09:26:17;8.95;;;4.50;;
74894;SDS011;63447;49.446;8.666;2023-02-28T09:28:47;8.43;;;4.63;;
74894;SDS011;63447;49.446;8.666;2023-02-28T09:31:20;8.95;;;4.50;;
74894;SDS011;63447;49.446;8.666;2023-02-28T09:36:22;8.35;;;4.30;;
74894;SDS011;63447;49.446;8.666;2023-02-28T09:38:51;7.97;;;4.63;;
74894;SDS011;63447;49.446;8.666;2023-02-28T09:41:27;10.10;;;4.55;;
74894;SDS011;63447;49.446;8.666;2023-02-28T09:44:04;7.68;;;4.38;;
74894;SDS011;63447;49.446;8.666;2023-02-28T09:49:11;8.85;;;4.43;;
74894;SDS011;63447;49.446;8.666;2023-02-28T09:52:26;7.85;;;3.58;;
74894;SDS011;63447;49.446;8.666;2023-02-28T09:54:33;8.18;;;4.30;;
74894;SDS011;63447;49.446;8.666;2023-02-28T10:05:01;9.80;;;4.90;;
74894;SDS011;63447;49.446;8.666;2023-02-28T10:07:50;7.95;;;4.55;;
74894;SDS011;63447;49.446;8.666;2023-02-28T10:12:54;8.68;;;4.57;;
74894;SDS011;63447;49.446;8.666;2023-02-28T10:15:24;8.98;;;4.68;;
74894;SDS011;63447;49.446;8.666;2023-02-28T10:18:00;9.95;;;4.15;;
74894;SDS011;63447;49.446;8.666;2023-02-28T10:20:34;8.35;;;4.50;;
74894;SDS011;63447;49.446;8.666;2023-02-28T10:25:58;7.45;;;4.35;;
74894;SDS011;63447;49.446;8.666;2023-02-28T10:28:25;8.68;;;4.68;;
74894;SDS011;63447;49.446;8.666;2023-02-28T10:30:57;7.93;;;4.38;;
74894;SDS011;63447;49.446;8.666;2023-02-28T10:35:50;9.35;;;4.70;;
74894;SDS011;63447;49.446;8.666;2023-02-28T10:38:22;8.02;;;4.80;;
74894;SDS011;63447;49.446;8.666;2023-02-28T10:41:00;7.20;;;4.43;;
74894;SDS011;63447;49.446;8.666;2023-02-28T10:43:32;10.07;;;4.80;;
74894;SDS011;63447;49.446;8.666;2023-02-28T10:48:34;8.25;;;4.47;;
74894;SDS011;63447;49.446;8.666;2023-02-28T10:51:08;9.23;;;5.30;;
74894;SDS011;63447;49.446;8.666;2023-02-28T11:04:48;8.55;;;4.78;;
74894;SDS011;63447;49.446;8.666;2023-02-28T11:09:52;9.25;;;5.57;;
74894;SDS011;63447;49.446;8.666;2023-02-28T11:12:21;7.65;;;4.78;;
74894;SDS011;63447;49.446;8.666;2023-02-28T11:14:47;8.27;;;4.72;;
74894;SDS011;63447;49.446;8.666;2023-02-28T11:17:24;9.07;;;5.32;;
74894;SDS011;63447;49.446;8.666;2023-02-28T11:20:05;8.77;;;5.10;;
74894;SDS011;63447;49.446;8.666;2023-02-28T11:22:33;9.60;;;5.53;;
74894;SDS011;63447;49.446;8.666;2023-02-28T11:25:23;9.85;;;5.25;;
74894;SDS011;63447;49.446;8.666;2023-02-28T11:27:52;8.10;;;5.10;;
74894;SDS011;63447;49.446;8.666;2023-02-28T11:30:29;13.07;;;5.80;;
74894;SDS011;63447;49.446;8.666;2023-02-28T11:38:46;9.20;;;5.10;;
74894;SDS011;63447;49.446;8.666;2023-02-28T12:11:29;11.10;;;7.13;;
74894;SDS011;63447;49.446;8.666;2023-02-28T12:25:52;10.55;;;6.20;;
74894;SDS011;63447;49.446;8.666;2023-02-28T12:28:28;8.98;;;5.53;;
74894;SDS011;63447;49.446;8.666;2023-02-28T12:31:11;9.55;;;6.20;;
74894;SDS011;63447;49.446;8.666;2023-02-28T12:36:14;10.52;;;7.03;;
74894;SDS011;63447;49.446;8.666;2023-02-28T12:44:00;28.42;;;24.40;;
74894;SDS011;63447;49.446;8.666;2023-02-28T12:46:34;10.25;;;6.30;;
74894;SDS011;63447;49.446;8.666;2023-02-28T12:49:06;9.88;;;5.78;;
74894;SDS011;63447;49.446;8.666;2023-02-28T12:51:35;10.40;;;6.22;;
74894;SDS011;63447;49.446;8.666;2023-02-28T12:54:04;8.88;;;5.53;;
74894;SDS011;63447;49.446;8.666;2023-02-28T13:07:49;9.82;;;6.00;;
74894;SDS011;63447;49.446;8.666;2023-02-28T13:10:39;9.10;;;5.78;;
74894;SDS011;63447;49.446;8.666;2023-02-28T13:13:11;8.70;;;5.53;;
74894;SDS011;63447;49.446;8.666;2023-02-28T13:15:40;8.57;;;5.43;;
74894;SDS011;63447;49.446;8.666;2023-02-28T13:18:27;9.95;;;5.97;;
74894;SDS011;63447;49.446;8.666;2023-02-28T13:20:56;10.23;;;6.13;;
74894;SDS011;63447;49.446;8.666;2023-02-28T13:26:06;8.98;;;5.55;;
74894;SDS011;63447;49.446;8.666;2023-02-28T13:31:15;9.07;;;5.93;;
74894;SDS011;63447;49.446;8.666;2023-02-28T13:38:44;9.60;;;6.03;;
74894;SDS011;63447;49.446;8.666;2023-02-28T13:46:34;10.48;;;6.35;;
74894;SDS011;63447;49.446;8.666;2023-02-28T13:52:15;8.55;;;5.53;;
74894;SDS011;63447;49.446;8.666;2023-02-28T14:00:28;9.20;;;5.55;;
74894;SDS011;63447;49.446;8.666;2023-02-28T14:03:08;9.70;;;5.90;;
74894;SDS011;63447;49.446;8.666;2023-02-28T14:05:43;9.15;;;5.28;;
74894;SDS011;63447;49.446;8.666;2023-02-28T14:08:29;9.82;;;5.53;;
74894;SDS011;63447;49.446;8.666;2023-02-28T14:11:06;8.73;;;5.57;;
74894;SDS011;63447;49.446;8.666;2023-02-28T14:13:44;8.63;;;5.60;;
74894;SDS011;63447;49.446;8.666;2023-02-28T14:16:22;9.38;;;5.70;;
74894;SDS011;63447;49.446;8.666;2023-02-28T14:21:38;9.07;;;6.15;;
74894;SDS011;63447;49.446;8.666;2023-02-28T14:32:22;9.68;;;6.20;;
74894;SDS011;63447;49.446;8.666;2023-02-28T14:34:55;9.75;;;6.72;;
74894;SDS011;63447;49.446;8.666;2023-02-28T14:37:32;10.95;;;6.03;;
74894;SDS011;63447;49.446;8.666;2023-02-28T14:40:02;9.40;;;5.72;;
74894;SDS011;63447;49.446;8.666;2023-02-28T14:42:35;9.05;;;5.65;;
74894;SDS011;63447;49.446;8.666;2023-02-28T14:45:18;9.73;;;6.15;;
74894;SDS011;63447;49.446;8.666;2023-02-28T14:50:22;9.93;;;6.30;;
74894;SDS011;63447;49.446;8.666;2023-02-28T14:53:01;10.60;;;6.05;;
74894;SDS011;63447;49.446;8.666;2023-02-28T14:55:34;10.15;;;6.43;;
74894;SDS011;63447;49.446;8.666;2023-02-28T14:58:02;10.40;;;6.53;;
74894;SDS011;63447;49.446;8.666;2023-02-28T15:00:32;9.65;;;6.47;;
74894;SDS011;63447;49.446;8.666;2023-02-28T15:03:17;8.02;;;5.65;;
74894;SDS011;63447;49.446;8.666;2023-02-28T15:06:18;9.07;;;6.00;;
74894;SDS011;63447;49.446;8.666;2023-02-28T15:08:42;11.10;;;5.70;;
74894;SDS011;63447;49.446;8.666;2023-02-28T15:11:12;10.38;;;6.32;;
74894;SDS011;63447;49.446;8.666;2023-02-28T15:13:42;9.95;;;6.22;;
74894;SDS011;63447;49.446;8.666;2023-02-28T15:16:10;8.90;;;6.15;;
74894;SDS011;63447;49.446;8.666;2023-02-28T15:21:15;10.73;;;6.70;;
74894;SDS011;63447;49.446;8.666;2023-02-28T15:23:44;11.20;;;7.10;;
74894;SDS011;63447;49.446;8.666;2023-02-28T15:28:44;9.60;;;5.90;;
74894;SDS011;63447;49.446;8.666;2023-02-28T15:31:20;10.07;;;6.43;;
74894;SDS011;63447;49.446;8.666;2023-02-28T15:33:57;9.07;;;5.97;;
74894;SDS011;63447;49.446;8.666;2023-02-28T15:36:29;8.98;;;5.80;;
74894;SDS011;63447;49.446;8.666;2023-02-28T15:38:56;9.13;;;6.25;;
74894;SDS011;63447;49.446;8.666;2023-02-28T15:47:04;10.68;;;6.03;;
74894;SDS011;63447;49.446;8.666;2023-02-28T15:49:48;10.13;;;6.10;;
74894;SDS011;63447;49.446;8.666;2023-02-28T15:52:18;10.68;;;6.45;;
74894;SDS011;63447;49.446;8.666;2023-02-28T15:54:50;10.40;;;6.32;;
74894;SDS011;63447;49.446;8.666;2023-02-28T15:57:33;10.10;;;6.18;;
74894;SDS011;63447;49.446;8.666;2023-02-28T16:02:35;10.07;;;5.95;;
74894;SDS011;63447;49.446;8.666;2023-02-28T16:07:37;9.95;;;6.32;;
74894;SDS011;63447;49.446;8.666;2023-02-28T16:10:05;9.73;;;6.15;;
74894;SDS011;63447;49.446;8.666;2023-02-28T16:12:32;9.43;;;5.72;;
74894;SDS011;63447;49.446;8.666;2023-02-28T16:15:09;10.70;;;6.10;;
74894;SDS011;63447;49.446;8.666;2023-02-28T16:17:40;9.50;;;6.10;;
74894;SDS011;63447;49.446;8.666;2023-02-28T16:20:12;10.97;;;6.10;;
74894;SDS011;63447;49.446;8.666;2023-02-28T16:22:42;10.50;;;6.10;;
74894;SDS011;63447;49.446;8.666;2023-02-28T16:25:11;9.65;;;5.72;;
74894;SDS011;63447;49.446;8.666;2023-02-28T16:27:37;12.13;;;6.70;;
74894;SDS011;63447;49.446;8.666;2023-02-28T16:30:06;9.15;;;5.40;;
74894;SDS011;63447;49.446;8.666;2023-02-28T16:32:42;9.20;;;5.70;;
74894;SDS011;63447;49.446;8.666;2023-02-28T16:35:12;11.00;;;6.35;;
74894;SDS011;63447;49.446;8.666;2023-02-28T16:37:40;10.68;;;5.47;;
74894;SDS011;63447;49.446;8.666;2023-02-28T16:40:07;11.15;;;6.25;;
74894;SDS011;63447;49.446;8.666;2023-02-28T16:42:46;11.18;;;6.50;;
74894;SDS011;63447;49.446;8.666;2023-02-28T16:45:20;11.55;;;6.20;;
74894;SDS011;63447;49.446;8.666;2023-02-28T16:47:47;12.55;;;6.93;;
74894;SDS011;63447;49.446;8.666;2023-02-28T16:50:14;11.17;;;6.33;;
74894;SDS011;63447;49.446;8.666;2023-02-28T16:52:42;10.70;;;6.07;;
74894;SDS011;63447;49.446;8.666;2023-02-28T16:55:08;10.32;;;6.55;;
74894;SDS011;63447;49.446;8.666;2023-02-28T16:57:33;10.13;;;6.00;;
74894;SDS011;63447;49.446;8.666;2023-02-28T17:02:24;10.60;;;6.17;;
74894;SDS011;63447;49.446;8.666;2023-02-28T17:04:49;9.30;;;5.20;;
74894;SDS011;63447;49.446;8.666;2023-02-28T17:09:41;12.27;;;5.78;;
74894;SDS011;63447;49.446;8.666;2023-02-28T17:12:10;9.65;;;5.82;;
74894;SDS011;63447;49.446;8.666;2023-02-28T17:14:37;10.82;;;6.00;;
74894;SDS011;63447;49.446;8.666;2023-02-28T17:17:06;10.35;;;6.18;;
74894;SDS011;63447;49.446;8.666;2023-02-28T17:19:34;11.73;;;6.78;;
74894;SDS011;63447;49.446;8.666;2023-02-28T17:22:03;10.68;;;6.25;;
74894;SDS011;63447;49.446;8.666;2023-02-28T17:24:31;10.50;;;5.80;;
74894;SDS011;63447;49.446;8.666;2023-02-28T17:29:21;10.47;;;5.90;;
74894;SDS011;63447;49.446;8.666;2023-02-28T17:31:51;12.30;;;6.47;;
74894;SDS011;63447;49.446;8.666;2023-02-28T17:34:17;10.98;;;6.32;;
74894;SDS011;63447;49.446;8.666;2023-02-28T17:36:49;10.88;;;5.95;;
74894;SDS011;63447;49.446;8.666;2023-02-28T17:39:17;11.77;;;6.43;;
74894;SDS011;63447;49.446;8.666;2023-02-28T17:41:54;11.73;;;6.00;;
74894;SDS011;63447;49.446;8.666;2023-02-28T17:44:23;13.20;;;6.75;;
74894;SDS011;63447;49.446;8.666;2023-02-28T17:46:49;10.30;;;6.30;;
74894;SDS011;63447;49.446;8.666;2023-02-28T17:49:17;11.82;;;6.40;;
74894;SDS011;63447;49.446;8.666;2023-02-28T17:54:12;11.05;;;6.20;;
74894;SDS011;63447;49.446;8.666;2023-02-28T17:56:38;10.60;;;6.90;;
74894;SDS011;63447;49.446;8.666;2023-02-28T18:01:30;11.83;;;6.30;;
74894;SDS011;63447;49.446;8.666;2023-02-28T18:03:55;11.13;;;6.17;;
74894;SDS011;63447;49.446;8.666;2023-02-28T18:06:22;12.82;;;6.93;;
74894;SDS011;63447;49.446;8.666;2023-02-28T18:08:52;11.02;;;6.30;;
74894;SDS011;63447;49.446;8.666;2023-02-28T18:11:19;12.57;;;6.30;;
74894;SDS011;63447;49.446;8.666;2023-02-28T18:13:52;10.48;;;6.00;;
74894;SDS011;63447;49.446;8.666;2023-02-28T18:16:24;11.60;;;6.13;;
74894;SDS011;63447;49.446;8.666;2023-02-28T18:18:52;10.85;;;6.07;;
74894;SDS011;63447;49.446;8.666;2023-02-28T18:21:20;22.83;;;12.85;;
74894;SDS011;63447;49.446;8.666;2023-02-28T18:23:48;23.35;;;12.38;;
74894;SDS011;63447;49.446;8.666;2023-02-28T18:26:17;22.55;;;11.93;;
74894;SDS011;63447;49.446;8.666;2023-02-28T18:28:45;17.70;;;10.45;;
74894;SDS011;63447;49.446;8.666;2023-02-28T18:31:12;16.52;;;9.98;;
74894;SDS011;63447;49.446;8.666;2023-02-28T18:33:42;12.35;;;7.30;;
74894;SDS011;63447;49.446;8.666;2023-02-28T18:36:11;11.65;;;7.20;;